Time;durP1;ratioP1;P1;durP2;ratioP2;P2;SDS_P1;SDS_P2;PMS_P1;PMS_P2;Temp;Humidity;BMP_temperature;BMP_pressure;BME280_temperature;BME280_humidity;BME280_pressure;Samples;Min_cycle;Max_cycle;Signal;HPM_P1;HPM_P2
2022/06/03 00:01:35;;;;;;;20.80;18.60;;;;;;;12.59;65.22;101066.05;106397;1271;24213;-74
2022/06/03 00:04:41;;;;;;;17.40;15.60;;;;;;;12.57;65.39;101069.06;106488;1271;22711;-71
2022/06/03 00:07:28;;;;;;;16.10;14.20;;;;;;;12.50;65.36;101074.58;106279;1272;25233;-77
2022/06/03 00:10:09;;;;;;;;;;;;;;;12.42;65.41;101071.80;106442;1271;25341;-76
2022/06/03 00:12:51;;;;;;;11.20;10.10;;;;;;;12.38;65.54;101072.88;106505;1271;22664;-76
2022/06/03 00:15:27;;;;;;;15.40;12.70;;;;;;;12.32;65.49;101073.79;105941;1276;25018;-74
2022/06/03 00:18:17;;;;;;;11.90;10.10;;;;;;;12.27;65.63;101075.25;105830;1276;22551;-71
2022/06/03 00:21:07;;;;;;;10.00;9.00;;;;;;;12.23;65.76;101076.33;105816;1277;22864;-73
2022/06/03 00:24:10;;;;;;;12.20;8.30;;;;;;;12.22;65.94;101075.27;105634;1276;25245;-72
2022/06/03 00:27:08;;;;;;;9.70;7.70;;;;;;;12.25;66.03;101074.55;105828;1277;22863;-69
2022/06/03 00:30:12;;;;;;;9.90;7.90;;;;;;;12.25;65.95;101075.24;105567;1276;22525;-72
2022/06/03 00:33:05;;;;;;;11.40;7.80;;;;;;;12.26;66.01;101073.30;105912;1277;25260;-72
2022/06/03 00:35:45;;;;;;;9.70;7.70;;;;;;;12.22;66.06;101073.86;106398;1271;22535;-72
2022/06/03 00:38:21;;;;;;;10.40;7.20;;;;;;;12.24;66.05;101074.56;106206;1271;24276;-73
2022/06/03 00:41:32;;;;;;;8.80;6.40;;;;;;;12.20;66.09;101074.92;106367;1271;26570;-73
2022/06/03 00:44:09;;;;;;;9.70;6.70;;;;;;;12.20;66.18;101073.52;105550;1279;25758;-73
2022/06/03 00:47:06;;;;;;;7.60;6.00;;;;;;;12.17;66.03;101067.52;106047;1271;25503;-73
2022/06/03 00:50:02;;;;;;;8.60;6.30;;;;;;;12.07;66.11;101067.02;106096;1271;24343;-72
2022/06/03 00:52:47;;;;;;;8.60;5.70;;;;;;;12.03;66.36;101072.31;106287;1271;22588;-71
2022/06/03 00:55:23;;;;;;;9.40;5.30;;;;;;;12.08;66.53;101072.66;106161;1274;22829;-73
2022/06/03 00:58:17;;;;;;;;;;;;;;;12.18;66.57;101072.81;106319;1271;25366;-73
2022/06/03 01:01:05;;;;;;;7.00;6.40;;;;;;;12.24;66.37;101071.55;106139;1271;22543;-73
2022/06/03 01:03:53;;;;;;;10.00;6.40;;;;;;;12.25;66.40;101068.73;106266;1271;22553;-74
2022/06/03 01:07:00;;;;;;;7.00;5.70;;;;;;;12.23;66.29;101073.48;106318;1271;24222;-74
2022/06/03 01:09:32;;;;;;;7.40;6.00;;;;;;;12.14;66.15;101074.24;105882;1271;22538;-72
2022/06/03 01:12:06;;;;;;;8.20;6.40;;;;;;;12.06;66.38;101074.80;106171;1272;22538;-73
2022/06/03 01:14:42;;;;;;;8.90;6.20;;;;;;;12.02;66.49;101075.50;106234;1271;26545;-73
2022/06/03 01:17:23;;;;;;;9.90;6.90;;;;;;;12.03;66.61;101075.50;105995;1271;23169;-74
2022/06/03 01:19:59;;;;;;;7.10;6.40;;;;;;;12.02;66.56;101079.73;106278;1271;25244;-74
2022/06/03 01:23:03;;;;;;;8.20;6.30;;;;;;;11.99;66.59;101079.93;106275;1271;22675;-74
2022/06/03 01:25:50;;;;;;;6.80;5.30;;;;;;;11.98;66.69;101080.45;106263;1271;22753;-74
2022/06/03 01:28:41;;;;;;;6.70;5.20;;;;;;;11.97;66.58;101078.53;106268;1271;22860;-74
2022/06/03 01:31:18;;;;;;;5.70;4.90;;;;;;;11.92;66.54;101079.95;106281;1271;24285;-74
2022/06/03 01:34:27;;;;;;;5.90;5.40;;;;;;;11.88;66.75;101079.61;105929;1272;22687;-74
2022/06/03 01:37:13;;;;;;;7.90;5.40;;;;;;;11.88;66.80;101078.02;105543;1279;22734;-75
2022/06/03 01:40:11;;;;;;;6.50;5.30;;;;;;;11.88;66.87;101075.90;106210;1271;26500;-72
2022/06/03 01:42:48;;;;;;;7.20;5.60;;;;;;;11.84;66.78;101077.69;105816;1274;22524;-75
2022/06/03 01:45:54;;;;;;;6.90;4.90;;;;;;;11.85;66.92;101074.86;106363;1271;22717;-74
2022/06/03 01:48:33;;;;;;;6.00;5.20;;;;;;;11.83;66.85;101074.50;106182;1271;25311;-74
2022/06/03 01:51:31;;;;;;;5.80;5.20;;;;;;;11.82;66.86;101071.34;106104;1271;22536;-74
2022/06/03 01:54:03;;;;;;;6.90;4.80;;;;;;;11.79;66.95;101069.95;106387;1271;22654;-77
2022/06/03 01:57:07;;;;;;;9.00;5.30;;;;;;;11.85;67.15;101068.85;106431;1271;24435;-76
2022/06/03 01:59:50;;;;;;;8.40;5.30;;;;;;;11.96;67.06;101065.99;106301;1271;22537;-76
2022/06/03 02:03:05;;;;;;;6.10;4.50;;;;;;;12.05;67.01;101066.83;106146;1274;23903;-76
2022/06/03 02:05:58;;;;;;;9.40;5.50;;;;;;;12.10;66.68;101068.80;105920;1277;26253;-70
2022/06/03 02:08:52;;;;;;;7.10;4.90;;;;;;;12.11;66.34;101067.36;105902;1281;22537;-71
2022/06/03 02:11:47;;;;;;;7.10;5.40;;;;;;;12.01;66.29;101065.98;106173;1271;25395;-74
2022/06/03 02:14:38;;;;;;;6.00;5.30;;;;;;;11.96;66.49;101066.17;106376;1271;22501;-74
2022/06/03 02:17:12;;;;;;;7.20;5.80;;;;;;;11.94;66.63;101068.99;106355;1271;22861;-79
2022/06/03 02:20:07;;;;;;;5.70;5.00;;;;;;;11.96;66.72;101067.59;106396;1271;22597;-75
2022/06/03 02:22:52;;;;;;;6.50;4.80;;;;;;;11.96;66.60;101071.64;106310;1271;22541;-76
2022/06/03 02:25:34;;;;;;;6.00;4.80;;;;;;;12.00;66.65;101067.39;106390;1271;22561;-78
2022/06/03 02:28:11;;;;;;;8.60;5.00;;;;;;;12.05;66.53;101069.66;105943;1275;25349;-76
2022/06/03 02:30:50;;;;;;;6.70;5.10;;;;;;;12.08;66.49;101069.66;106172;1274;25229;-72
2022/06/03 02:33:47;;;;;;;7.90;5.10;;;;;;;12.10;66.30;101070.20;105824;1281;23194;-72
2022/06/03 02:36:54;;;;;;;8.10;6.10;;;;;;;12.05;66.28;101069.48;105760;1280;25471;-72
2022/06/03 02:39:55;;;;;;;7.10;5.80;;;;;;;12.03;66.52;101071.96;105464;1281;22563;-73
2022/06/03 02:43:04;;;;;;;12.00;6.20;;;;;;;12.06;66.53;101074.43;105387;1280;22534;-74
2022/06/03 02:45:58;;;;;;;6.20;5.50;;;;;;;12.08;66.40;101075.48;105455;1280;25232;-74
2022/06/03 02:48:33;;;;;;;8.30;6.10;;;;;;;12.07;66.48;101071.27;106009;1277;22576;-74
2022/06/03 02:51:33;;;;;;;6.50;5.30;;;;;;;12.10;66.36;101075.84;105931;1272;24260;-75
2022/06/03 02:54:50;;;;;;;9.20;5.60;;;;;;;12.09;66.26;101076.57;105499;1278;22528;-74
2022/06/03 02:57:29;;;;;;;7.30;5.20;;;;;;;12.06;66.29;101075.50;105571;1277;22565;-74
2022/06/03 03:00:17;;;;;;;6.50;5.50;;;;;;;12.05;66.11;101080.61;105792;1278;24384;-75
2022/06/03 03:02:58;;;;;;;6.60;5.50;;;;;;;12.04;66.21;101083.79;105829;1277;22687;-73
2022/06/03 03:05:57;;;;;;;8.60;4.90;;;;;;;12.03;66.21;101091.02;105859;1277;25710;-77
2022/06/03 03:08:43;;;;;;;7.60;5.50;;;;;;;12.00;66.21;101095.99;105794;1276;22818;-77
2022/06/03 03:11:41;;;;;;;5.70;5.10;;;;;;;12.02;66.42;101096.86;105860;1277;25298;-72
2022/06/03 03:14:25;;;;;;;5.90;5.30;;;;;;;12.03;66.48;101102.67;106302;1271;25248;-73
2022/06/03 03:17:00;;;;;;;6.30;5.30;;;;;;;12.07;66.45;101102.52;106214;1271;22522;-72
2022/06/03 03:19:53;;;;;;;7.70;5.90;;;;;;;12.14;66.34;101107.44;106335;1271;25235;-74
2022/06/03 03:22:29;;;;;;;6.10;5.10;;;;;;;12.18;66.24;101112.19;106271;1271;22561;-75
2022/06/03 03:25:44;;;;;;;6.50;5.70;;;;;;;12.20;66.20;101114.48;106147;1272;22867;-74
2022/06/03 03:28:45;;;;;;;7.40;5.80;;;;;;;12.25;66.19;101116.40;106171;1272;22599;-73
2022/06/03 03:31:43;;;;;;;7.10;5.40;;;;;;;12.26;66.17;101118.69;106283;1271;26503;-72
2022/06/03 03:34:18;;;;;;;7.00;6.10;;;;;;;12.29;66.17;101121.50;106427;1271;24293;-73
2022/06/03 03:37:10;;;;;;;7.50;6.40;;;;;;;12.31;66.15;101127.66;106321;1271;22522;-76
2022/06/03 03:39:54;;;;;;;7.70;5.80;;;;;;;12.33;66.19;101126.25;106202;1270;25296;-75
2022/06/03 03:42:51;;;;;;;5.50;4.90;;;;;;;12.36;66.07;101128.70;106411;1271;22569;-74
2022/06/03 03:45:18;;;;;;;7.00;5.60;;;;;;;12.38;65.89;101135.05;106160;1271;22518;-76
2022/06/03 03:48:10;;;;;;;7.10;5.50;;;;;;;12.37;65.76;101134.02;106328;1274;24282;-75
2022/06/03 03:50:49;;;;;;;8.50;5.90;;;;;;;12.40;65.70;101138.59;105985;1276;25469;-80
2022/06/03 03:53:29;;;;;;;7.60;5.10;;;;;;;12.45;65.82;101143.67;105900;1277;23203;-75
2022/06/03 03:56:47;;;;;;;7.00;5.10;;;;;;;12.48;65.58;101143.48;106059;1277;22553;-75
2022/06/03 03:59:39;;;;;;;6.50;4.90;;;;;;;12.52;65.53;101149.82;106037;1279;22568;-74
2022/06/03 04:02:05;;;;;;;6.10;5.20;;;;;;;12.53;65.39;101151.59;106374;1278;22727;-75
2022/06/03 04:04:44;;;;;;;9.60;6.00;;;;;;;12.56;65.21;101150.52;106373;1277;22494;-76
2022/06/03 04:07:32;;;;;;;6.60;5.40;;;;;;;12.60;65.21;101150.67;106234;1279;25860;-75
2022/06/03 04:09:58;;;;;;;7.10;5.80;;;;;;;12.65;65.13;101149.77;106728;1271;24199;-78
2022/06/03 04:13:15;;;;;;;9.30;5.80;;;;;;;12.67;64.84;101151.16;106594;1271;22713;-74
2022/06/03 04:16:19;;;;;;;6.90;5.00;;;;;;;12.67;64.80;101153.29;106597;1271;25260;-75
2022/06/03 04:19:22;;;;;;;6.60;5.20;;;;;;;12.62;64.61;101154.04;106543;1271;22581;-80
2022/06/03 04:22:20;;;;;;;5.60;5.00;;;;;;;12.63;64.66;101157.20;106451;1271;26641;-74
2022/06/03 04:24:56;;;;;;;6.80;5.70;;;;;;;12.66;64.73;101160.55;107989;1271;22548;-85
2022/06/03 04:28:00;;;;;;;7.50;4.60;;;;;;;12.71;64.68;101160.34;107864;1271;24406;-81
2022/06/03 04:31:11;;;;;;;5.20;4.30;;;;;;;12.79;64.39;101156.56;107037;1271;26468;-83
2022/06/03 04:34:16;;;;;;;8.30;5.20;;;;;;;12.87;64.05;101161.30;106745;1271;22922;-83
2022/06/03 04:37:20;;;;;;;7.70;4.30;;;;;;;12.95;63.88;101162.84;107470;1270;25361;-82
2022/06/03 04:40:06;;;;;;;6.80;5.00;;;;;;;13.02;63.68;101164.57;108080;1271;22540;-81
2022/06/03 04:43:12;;;;;;;6.50;5.10;;;;;;;13.06;63.58;101170.02;108589;1270;23674;-80
2022/06/03 04:46:02;;;;;;;7.30;4.60;;;;;;;13.11;63.16;101169.62;108400;1271;22544;-82
2022/06/03 04:49:11;;;;;;;7.30;4.50;;;;;;;13.18;63.09;101170.98;107981;1271;22489;-82
2022/06/03 04:52:23;;;;;;;5.40;4.70;;;;;;;13.26;63.04;101173.23;106934;1271;22812;-81
2022/06/03 04:55:07;;;;;;;6.30;4.60;;;;;;;13.35;62.94;101177.75;106452;1271;22679;-77
2022/06/03 04:57:49;;;;;;;5.80;4.50;;;;;;;13.40;62.70;101173.11;106978;1271;22521;-76
2022/06/03 05:00:54;;;;;;;7.30;4.80;;;;;;;13.51;62.52;101182.42;106985;1271;25280;-77
2022/06/03 05:03:39;;;;;;;6.50;4.50;;;;;;;13.58;62.53;101181.31;106314;1271;23127;-76
2022/06/03 05:06:44;;;;;;;4.90;4.30;;;;;;;13.64;62.16;101184.10;106129;1271;23909;-74
2022/06/03 05:09:49;;;;;;;7.30;4.30;;;;;;;13.71;61.96;101183.32;106356;1271;22470;-76
2022/06/03 05:12:53;;;;;;;8.60;4.30;;;;;;;13.77;61.71;101183.26;106482;1271;22643;-74
2022/06/03 05:15:58;;;;;;;7.10;4.80;;;;;;;13.84;61.50;101185.67;106370;1271;25579;-76
2022/06/03 05:19:09;;;;;;;6.70;4.50;;;;;;;13.91;60.97;101190.57;106332;1271;25242;-81
2022/06/03 05:22:22;;;;;;;5.30;4.00;;;;;;;14.00;60.77;101190.11;102703;1309;545211;-75
2022/06/03 05:25:17;;;;;;;5.00;3.70;;;;;;;14.03;60.48;101188.31;105553;1284;22576;-75
2022/06/03 05:28:06;;;;;;;5.60;3.90;;;;;;;14.09;60.30;101190.02;105367;1284;22909;-77
2022/06/03 05:31:05;;;;;;;4.00;3.00;;;;;;;14.16;59.92;101195.45;105357;1283;25245;-77
2022/06/03 05:33:56;;;;;;;5.20;2.30;;;;;;;14.23;59.04;101194.30;105320;1284;25297;-75
2022/06/03 05:36:54;;;;;;;4.10;3.10;;;;;;;14.29;58.14;101192.80;105480;1281;251721;-79
2022/06/03 05:39:39;;;;;;;6.50;2.60;;;;;;;14.36;57.74;101190.95;105570;1281;24092;-81
2022/06/03 05:42:27;;;;;;;2.50;2.10;;;;;;;14.39;57.45;101188.08;105473;1281;22545;-81
2022/06/03 05:45:22;;;;;;;2.80;2.10;;;;;;;14.48;56.81;101195.93;104957;1286;22556;-83
2022/06/03 05:48:15;;;;;;;3.00;2.40;;;;;;;14.54;56.56;101192.86;105035;1286;24390;-83
2022/06/03 05:51:02;;;;;;;3.20;2.10;;;;;;;14.60;56.15;101190.30;105129;1286;26507;-83
2022/06/03 05:53:53;;;;;;;6.90;2.00;;;;;;;14.66;55.96;101191.99;105009;1287;22542;-82
2022/06/03 05:56:31;;;;;;;3.80;2.30;;;;;;;14.68;55.30;101184.70;105097;1286;24354;-83
2022/06/03 05:58:58;;;;;;;2.90;2.60;;;;;;;14.75;55.21;101183.90;104228;1292;22834;-88
2022/06/03 06:01:49;;;;;;;3.90;2.60;;;;;;;14.81;55.31;101187.58;105126;1284;25545;-84
2022/06/03 06:04:20;;;;;;;4.40;2.30;;;;;;;14.88;54.76;101188.19;105653;1280;22538;-83
2022/06/03 06:06:59;;;;;;;2.80;2.10;;;;;;;14.94;54.80;101190.95;105623;1279;25290;-85
2022/06/03 06:09:38;;;;;;;2.40;2.10;;;;;;;15.00;54.41;101191.55;105596;1280;24452;-84
2022/06/03 06:12:19;;;;;;;3.00;2.10;;;;;;;15.06;54.25;101196.96;105640;1280;26516;-83
2022/06/03 06:15:34;;;;;;;3.00;2.50;;;;;;;15.12;54.10;101194.39;105478;1280;23620;-82
2022/06/03 06:18:07;;;;;;;2.20;2.00;;;;;;;15.19;53.99;101191.99;105924;1274;25310;-84
2022/06/03 06:21:26;;;;;;;4.20;2.10;;;;;;;15.29;53.98;101198.23;106117;1274;22573;-82
2022/06/03 06:24:08;;;;;;;3.60;2.10;;;;;;;15.37;53.83;101198.98;105780;1277;24271;-83
2022/06/03 06:26:46;;;;;;;3.40;2.00;;;;;;;15.42;53.42;101198.38;106172;1274;24231;-84
2022/06/03 06:29:34;;;;;;;4.40;2.00;;;;;;;15.51;53.44;101202.30;106120;1274;25314;-82
2022/06/03 06:32:26;;;;;;;3.80;1.80;;;;;;;15.58;53.22;101196.85;106042;1274;22612;-84
2022/06/03 06:35:22;;;;;;;2.60;1.90;;;;;;;15.66;52.43;101198.16;106263;1275;22606;-83
2022/06/03 06:38:15;;;;;;;2.20;1.90;;;;;;;15.72;52.49;101199.81;106822;1274;22557;-83
2022/06/03 06:41:04;;;;;;;2.80;1.60;;;;;;;15.78;51.89;101199.89;107223;1274;25264;-83
2022/06/03 06:43:50;;;;;;;3.10;1.90;;;;;;;15.84;52.05;101199.42;106504;1274;22557;-85
2022/06/03 06:46:28;;;;;;;2.80;1.90;;;;;;;15.90;51.67;101200.73;106243;1275;25248;-83
2022/06/03 06:49:24;;;;;;;3.20;2.20;;;;;;;15.95;51.33;101201.73;106946;1274;22581;-84
2022/06/03 06:52:18;;;;;;;1.90;1.60;;;;;;;16.01;51.31;101198.45;107036;1274;22484;-82
2022/06/03 06:55:10;;;;;;;3.40;1.80;;;;;;;16.06;51.44;101202.43;106236;1274;22567;-88
2022/06/03 06:57:55;;;;;;;2.40;1.60;;;;;;;16.10;50.63;101194.89;106002;1274;22557;-85
2022/06/03 07:00:37;;;;;;;2.00;1.80;;;;;;;16.14;50.76;101196.41;105908;1275;22522;-82
2022/06/03 07:03:14;;;;;;;2.50;2.00;;;;;;;16.20;51.09;101193.09;105664;1274;22521;-84
2022/06/03 07:05:50;;;;;;;2.70;2.00;;;;;;;16.27;50.81;101190.46;105923;1277;23851;-83
2022/06/03 07:08:19;;;;;;;4.90;2.60;;;;;;;16.34;50.50;101192.47;105994;1274;22531;-82
2022/06/03 07:11:18;;;;;;;3.50;2.10;;;;;;;16.39;50.50;101188.10;106183;1274;22547;-82
2022/06/03 07:13:54;;;;;;;3.30;2.20;;;;;;;16.42;50.17;101183.77;106011;1274;22538;-83
2022/06/03 07:22:15;;;;;;;2.10;1.90;;;;;;;16.67;50.51;101180.40;106107;1274;22472;-84
2022/06/03 07:24:48;;;;;;;4.80;1.90;;;;;;;16.74;50.39;101173.31;105998;1274;22547;-83
2022/06/03 07:27:47;;;;;;;2.80;1.80;;;;;;;16.83;50.16;101174.17;106122;1273;22571;-84
2022/06/03 07:30:47;;;;;;;3.70;2.20;;;;;;;16.92;49.86;101174.52;106044;1274;22535;-83
2022/06/03 07:33:18;;;;;;;2.50;2.10;;;;;;;17.02;49.66;101173.38;105994;1274;24227;-83
2022/06/03 07:35:52;;;;;;;2.20;2.00;;;;;;;17.09;49.37;101173.96;106183;1274;22684;-84
2022/06/03 07:38:28;;;;;;;3.50;2.00;;;;;;;17.17;49.31;101174.86;106546;1274;22532;-83
2022/06/03 07:40:55;;;;;;;;;;;;;;;17.24;49.09;101174.69;106098;1274;23901;-83
2022/06/03 07:43:25;;;;;;;4.10;2.00;;;;;;;17.28;49.15;101171.39;106198;1274;22531;-83
2022/06/03 07:45:51;;;;;;;4.50;2.20;;;;;;;17.32;48.98;101177.86;106220;1273;24295;-84
2022/06/03 07:48:22;;;;;;;2.80;2.40;;;;;;;17.40;49.14;101173.92;106117;1274;24099;-84
2022/06/03 07:50:55;;;;;;;3.50;2.30;;;;;;;17.51;49.03;101177.05;106278;1274;25363;-83
2022/06/03 07:53:50;;;;;;;2.40;2.10;;;;;;;17.61;48.82;101174.48;106189;1274;23158;-84
2022/06/03 07:56:27;;;;;;;3.70;2.60;;;;;;;17.74;48.74;101175.56;106631;1274;22746;-83
2022/06/03 07:58:58;;;;;;;2.50;2.10;;;;;;;17.80;48.63;101169.69;107816;1271;25370;-84
2022/06/03 08:02:03;;;;;;;3.60;2.30;;;;;;;17.94;48.73;101173.05;107644;1271;22594;-82
2022/06/03 08:04:34;;;;;;;5.50;2.20;;;;;;;18.15;48.25;101167.52;107348;1271;25360;-81
2022/06/03 08:12:39;;;;;;;4.20;1.70;;;;;;;18.61;46.80;101170.47;106325;1277;23197;-80
2022/06/03 08:15:28;;;;;;;2.70;2.20;;;;;;;18.68;46.77;101175.24;106277;1276;25417;-84
2022/06/03 08:17:56;;;;;;;7.00;2.60;;;;;;;18.66;46.48;101174.09;105770;1280;24264;-82
2022/06/03 08:20:26;;;;;;;3.60;1.80;;;;;;;18.80;46.34;101176.86;105733;1277;25335;-83
2022/06/03 08:22:54;;;;;;;2.90;1.90;;;;;;;18.87;44.46;101179.86;105857;1277;22652;-84
2022/06/03 08:25:27;;;;;;;3.10;1.70;;;;;;;18.82;44.11;101176.80;105960;1276;22645;-82
2022/06/03 08:27:59;;;;;;;1.80;1.50;;;;;;;18.90;44.20;101178.15;106152;1276;25441;-85
2022/06/03 08:30:28;;;;;;;1.60;1.40;;;;;;;19.05;43.78;101173.58;106112;1268;23612;-85
2022/06/03 08:33:09;;;;;;;1.50;1.50;;;;;;;19.18;43.40;101164.27;105888;1276;22522;-83
2022/06/03 08:35:42;;;;;;;4.30;1.90;;;;;;;19.32;43.10;101160.06;105901;1276;22541;-82
2022/06/03 08:38:16;;;;;;;2.60;1.70;;;;;;;19.51;43.21;101156.40;106418;1277;24870;-83
2022/06/03 08:41:06;;;;;;;1.60;1.50;;;;;;;19.73;43.12;101160.27;106704;1277;23213;-83
2022/06/03 08:43:51;;;;;;;11.40;10.00;;;;;;;19.94;42.45;101156.16;106646;1277;22587;-83
2022/06/03 08:46:28;;;;;;;1.80;1.40;;;;;;;20.04;41.51;101153.98;106889;1276;25258;-83
2022/06/03 08:49:06;;;;;;;2.90;1.70;;;;;;;19.96;41.18;101163.39;106644;1277;23308;-83
2022/06/03 08:51:46;;;;;;;3.20;2.10;;;;;;;19.84;41.50;101162.39;106946;1268;25393;-82
2022/06/03 08:54:29;;;;;;;4.30;2.00;;;;;;;19.68;41.50;101159.03;106694;1268;24233;-82
2022/06/03 08:57:17;;;;;;;2.00;1.60;;;;;;;19.69;41.21;101160.23;106516;1268;24235;-84
2022/06/03 09:00:16;;;;;;;2.20;1.60;;;;;;;19.77;41.26;101155.11;106355;1268;22561;-84
2022/06/03 09:02:55;;;;;;;3.10;1.90;;;;;;;19.75;41.55;101151.83;106190;1268;24252;-82
2022/06/03 09:05:38;;;;;;;3.80;1.50;;;;;;;19.71;41.55;101149.80;106263;1271;24247;-83
2022/06/03 09:08:25;;;;;;;3.90;1.50;;;;;;;19.63;41.60;101152.77;106293;1268;22527;-83
2022/06/03 09:11:04;;;;;;;2.30;1.70;;;;;;;19.63;41.76;101149.34;106352;1268;24764;-82
2022/06/03 09:14:00;;;;;;;2.00;1.90;;;;;;;19.55;41.98;101153.02;105923;1274;23961;-82
2022/06/03 09:16:28;;;;;;;1.70;1.50;;;;;;;19.48;41.89;101149.70;105918;1274;25354;-83
2022/06/03 09:19:20;;;;;;;3.30;1.60;;;;;;;19.59;41.87;101155.94;106080;1274;22532;-83
2022/06/03 09:21:51;;;;;;;2.10;1.50;;;;;;;19.82;41.61;101153.16;105858;1274;23382;-82
2022/06/03 09:24:24;;;;;;;1.80;1.70;;;;;;;19.96;41.12;101153.91;105747;1274;24508;-81
2022/06/03 09:26:58;;;;;;;2.00;1.90;;;;;;;19.91;41.02;101162.88;105737;1274;25208;-81
2022/06/03 09:29:26;;;;;;;1.60;1.30;;;;;;;19.91;40.65;101156.96;106018;1274;23919;-84
2022/06/03 09:32:02;;;;;;;1.90;1.30;;;;;;;20.08;40.48;101154.40;105951;1274;22702;-82
2022/06/03 09:34:43;;;;;;;3.20;1.40;;;;;;;20.32;40.62;101155.52;105775;1274;22529;-83
2022/06/03 09:37:14;;;;;;;2.60;1.70;;;;;;;20.45;40.68;101147.48;105964;1274;22528;-83
2022/06/03 09:39:44;;;;;;;2.30;1.80;;;;;;;20.71;40.81;101149.02;106115;1268;22714;-83
2022/06/03 09:42:14;;;;;;;2.00;1.60;;;;;;;20.95;40.43;101146.11;106316;1268;23576;-82
2022/06/03 09:44:43;;;;;;;2.90;1.90;;;;;;;21.20;40.56;101147.96;106456;1268;24383;-83
2022/06/03 09:47:14;;;;;;;1.60;1.50;;;;;;;21.47;39.78;101148.81;106454;1268;22538;-82
2022/06/03 09:49:45;;;;;;;2.30;2.10;;;;;;;21.69;39.08;101150.89;106369;1268;22568;-81
2022/06/03 09:52:21;;;;;;;3.20;1.50;;;;;;;21.81;38.35;101148.28;106319;1268;24354;-83
2022/06/03 09:54:49;;;;;;;1.40;1.30;;;;;;;21.73;37.85;101146.45;106166;1268;22858;-82
2022/06/03 09:57:41;;;;;;;3.80;1.40;;;;;;;21.55;38.19;101146.16;106145;1268;26541;-83
2022/06/03 10:00:21;;;;;;;2.10;1.40;;;;;;;21.53;38.22;101144.98;106283;1268;22547;-83
2022/06/03 10:02:49;;;;;;;5.10;1.90;;;;;;;21.25;38.18;101140.96;106406;1268;25241;-83
2022/06/03 10:05:18;;;;;;;1.90;1.80;;;;;;;21.05;38.23;101146.08;106294;1268;24302;-84
2022/06/03 10:07:48;;;;;;;3.40;1.40;;;;;;;21.01;38.69;101139.41;106136;1268;25420;-83
2022/06/03 10:13:06;;;;;;;3.10;1.40;;;;;;;20.90;38.92;101134.27;106476;1268;25440;-82
2022/06/03 10:15:42;;;;;;;3.10;1.30;;;;;;;21.15;39.48;101129.88;106432;1268;22684;-84
2022/06/03 10:18:49;;;;;;;2.50;1.10;;;;;;;21.50;39.15;101130.59;105996;1277;22528;-83
2022/06/03 10:21:15;;;;;;;2.00;1.90;;;;;;;21.64;37.95;101124.63;106084;1276;25361;-84
2022/06/03 10:23:45;;;;;;;1.80;1.70;;;;;;;21.46;37.82;101124.83;105744;1281;22955;-83
2022/06/03 10:26:25;;;;;;;1.70;1.30;;;;;;;21.31;37.76;101127.44;105520;1281;24209;-83
2022/06/03 10:28:54;;;;;;;1.60;1.50;;;;;;;21.27;37.80;101125.81;105722;1281;23596;-83
2022/06/03 10:31:30;;;;;;;3.80;1.40;;;;;;;21.45;37.58;101122.34;105630;1281;25275;-81
2022/06/03 10:34:00;;;;;;;3.00;1.20;;;;;;;21.72;37.49;101121.55;106282;1281;22737;-82
2022/06/03 10:36:32;;;;;;;1.60;1.30;;;;;;;22.00;37.66;101117.48;106153;1276;26766;-85
2022/06/03 10:39:00;;;;;;;2.10;1.30;;;;;;;22.18;37.32;101110.77;106071;1276;22720;-79
2022/06/03 10:41:40;;;;;;;2.40;1.20;;;;;;;22.17;36.94;101108.96;106230;1268;24259;-87
2022/06/03 10:44:13;;;;;;;1.50;1.40;;;;;;;22.07;36.93;101108.56;106329;1271;22463;-84
2022/06/03 10:47:04;;;;;;;3.60;1.40;;;;;;;22.17;36.77;101113.13;106934;1268;23955;-83
2022/06/03 10:49:38;;;;;;;1.40;1.30;;;;;;;22.32;36.62;101112.59;106884;1268;25353;-84
2022/06/03 11:03:24;;;;;;;4.10;1.20;;;;;;;22.39;35.81;101099.16;105954;1276;22516;-85
2022/06/03 11:05:51;;;;;;;3.90;1.40;;;;;;;22.66;35.69;101093.98;106081;1277;22533;-83
2022/06/03 11:08:19;;;;;;;2.90;1.50;;;;;;;22.80;36.08;101092.56;106101;1277;22522;-87
2022/06/03 11:10:53;;;;;;;11.70;1.60;;;;;;;22.76;35.61;101094.20;106186;1275;25268;-85
2022/06/03 11:13:30;;;;;;;2.30;1.50;;;;;;;22.69;35.66;101092.41;106293;1275;22892;-83
2022/06/03 11:16:20;;;;;;;2.20;1.20;;;;;;;22.67;34.87;101087.30;106734;1274;25466;-83
2022/06/03 11:18:47;;;;;;;3.30;1.20;;;;;;;22.73;34.76;101079.96;107520;1271;22469;-82
2022/06/03 11:21:30;;;;;;;2.30;1.40;;;;;;;22.90;34.87;101086.36;107869;1268;22787;-83
2022/06/03 11:23:59;;;;;;;3.30;1.60;;;;;;;22.97;34.89;101086.73;107369;1268;24278;-83
2022/06/03 11:26:34;;;;;;;1.50;1.40;;;;;;;22.94;34.60;101082.75;107059;1268;22454;-82
2022/06/03 11:29:07;;;;;;;2.70;1.60;;;;;;;22.80;34.49;101074.81;106643;1268;22560;-83
2022/06/03 11:31:41;;;;;;;2.90;1.40;;;;;;;23.04;35.20;101071.65;106521;1268;25370;-85
2022/06/03 11:34:22;;;;;;;2.60;1.40;;;;;;;23.32;34.94;101070.23;106720;1268;25231;-82
2022/06/03 11:36:56;;;;;;;1.40;1.30;;;;;;;23.25;35.00;101066.08;106777;1268;22627;-84
2022/06/03 11:39:25;;;;;;;1.60;1.20;;;;;;;23.39;34.81;101066.67;107561;1268;22538;-82
2022/06/03 11:41:58;;;;;;;1.50;1.40;;;;;;;23.28;34.51;101061.63;107708;1268;23028;-82
2022/06/03 11:44:38;;;;;;;1.10;1.10;;;;;;;23.36;34.25;101049.33;107241;1269;22543;-82
2022/06/03 11:47:17;;;;;;;1.20;0.90;;;;;;;23.82;34.38;101049.29;107327;1268;22575;-83
2022/06/03 11:49:45;;;;;;;1.80;1.10;;;;;;;24.32;34.43;101049.45;107050;1268;22534;-84
2022/06/03 11:52:12;;;;;;;1.30;0.90;;;;;;;24.76;33.72;101050.19;106940;1268;24205;-82
2022/06/03 11:54:40;;;;;;;2.10;1.30;;;;;;;25.08;33.12;101054.30;106861;1268;22535;-83
2022/06/03 11:57:07;;;;;;;1.10;1.10;;;;;;;24.99;33.03;101057.16;107327;1268;24061;-82
2022/06/03 11:59:56;;;;;;;1.90;1.20;;;;;;;24.91;33.16;101050.92;107346;1268;22671;-83
2022/06/03 12:02:42;;;;;;;4.60;1.30;;;;;;;24.95;33.12;101048.73;107011;1268;24290;-84
2022/06/03 12:05:24;;;;;;;1.50;1.40;;;;;;;25.12;33.09;101041.95;106926;1268;22545;-83
2022/06/03 12:08:26;;;;;;;2.80;1.50;;;;;;;25.43;32.65;101044.44;107611;1268;22516;-81
2022/06/03 12:11:04;;;;;;;3.70;1.20;;;;;;;25.40;32.13;101045.48;106915;1271;22542;-84
2022/06/03 12:13:33;;;;;;;1.20;1.20;;;;;;;25.51;31.75;101039.11;106700;1268;25373;-82
2022/06/03 12:16:04;;;;;;;1.70;1.30;;;;;;;25.45;32.02;101040.38;106672;1268;22601;-84
2022/06/03 12:18:42;;;;;;;1.30;1.10;;;;;;;25.38;31.62;101033.55;106412;1268;22689;-83
2022/06/03 12:21:14;;;;;;;2.10;1.20;;;;;;;25.10;32.03;101028.95;106511;1268;25353;-83
2022/06/03 12:23:43;;;;;;;2.30;1.30;;;;;;;25.19;32.14;101025.35;106291;1271;25229;-84
2022/06/03 12:26:31;;;;;;;3.30;1.20;;;;;;;25.13;32.44;101027.66;106626;1271;22641;-84
2022/06/03 12:29:07;;;;;;;1.40;1.20;;;;;;;24.93;31.97;101023.64;106210;1271;22595;-82
2022/06/03 12:31:44;;;;;;;1.70;1.30;;;;;;;24.96;31.88;101024.02;106244;1271;22720;-81
2022/06/03 12:34:29;;;;;;;1.30;0.90;;;;;;;25.13;31.97;101022.83;106286;1271;25299;-82
2022/06/03 12:37:20;;;;;;;2.00;1.30;;;;;;;25.16;31.10;101023.52;106264;1271;22544;-83
2022/06/03 12:39:50;;;;;;;1.30;1.20;;;;;;;25.17;31.58;101017.36;106523;1271;22544;-84
2022/06/03 12:42:26;;;;;;;2.30;1.30;;;;;;;25.28;31.42;101010.16;106758;1271;25346;-83
2022/06/03 12:45:26;;;;;;;1.20;1.10;;;;;;;25.56;31.29;101012.80;106702;1271;22525;-83
2022/06/03 12:47:55;;;;;;;2.40;1.20;;;;;;;25.84;31.08;100998.09;106622;1271;22681;-83
2022/06/03 12:50:32;;;;;;;2.80;1.10;;;;;;;26.22;30.99;101003.77;106255;1271;22587;-83
2022/06/03 12:53:28;;;;;;;1.30;1.30;;;;;;;26.54;30.47;101002.60;106279;1271;25327;-83
2022/06/03 12:56:06;;;;;;;5.70;1.90;;;;;;;26.64;29.99;101001.27;106189;1271;24341;-83
2022/06/03 12:58:44;;;;;;;1.70;1.30;;;;;;;26.91;30.10;101007.42;106478;1268;24224;-84
2022/06/03 13:01:25;;;;;;;1.10;1.00;;;;;;;27.17;29.55;101006.14;106294;1271;22748;-85